Latest Weather Observations for Horsley Park

IDN60801

Issued at 11:05 pm EDT Saturday 1 November 2014 (issued every 30 minutes, with the page automatically refreshed every 10 minutes)

About weather observations | Map of weather stations | Latest weather observations for NSW | Other Formats
Station Details ID: 067119 Name: HORSLEY PARK EQUESTRIAN CENTRE AWS Lat: -33.85 Lon: 150.86 Height: 100.0 m
Data from the previous 72 hours. | See also: Recent months at Horsley Park
Date/Time
EDT
Temp
°C
App
Temp
°C
Dew
Point
Rel
Hum
%
Delta-T
°C
Wind Press
QNH
hPa
Press
MSL
hPa
Rain
since 9 am
mm
Dir
 
Spd
km/h
Gust
km/h
Spd
kts
Gust
kts
01/11:00pm 19.1 12.5 2.0 32 7.8 SW 26 43 14 23 - - 0.8
01/10:37pm 19.5 12.6 2.8 33 7.8 SW 28 46 15 25 - - 0.8
01/10:30pm 19.6 13.2 3.3 34 7.7 SW 26 46 14 25 - - 0.8
01/10:23pm 19.7 13.2 4.6 37 7.3 SW 28 35 15 19 - - 0.8
01/10:00pm 19.4 17.5 7.5 46 6.1 WSW 7 15 4 8 - - 0.8
01/09:30pm 19.7 17.6 8.1 47 6.0 SW 9 15 5 8 - - 0.8
01/09:00pm 19.9 16.4 8.6 48 5.9 SSW 17 26 9 14 - - 0.6
01/08:30pm 20.2 16.5 9.5 50 5.7 SSW 19 28 10 15 - - 0.6
01/08:00pm 20.9 16.8 10.1 50 5.9 SSW 22 35 12 19 - - 0.6
01/07:30pm 22.5 16.6 11.3 49 6.3 SSW 33 52 18 28 - - 0.6
01/07:23pm 23.3 18.5 11.7 48 6.6 SW 28 52 15 28 - - 0.6
01/07:00pm 26.4 24.5 11.7 40 8.4 WSW 13 24 7 13 - - 0.6
01/06:30pm 27.4 25.6 12.2 39 8.8 W 13 24 7 13 - - 0.6
01/06:00pm 28.1 27.3 14.0 42 8.5 WSW 11 26 6 14 - - 0.6
01/05:30pm 28.4 25.2 13.1 39 9.1 W 22 32 12 17 - - 0.6
01/05:00pm 28.9 27.3 15.1 43 8.4 NW 17 30 9 16 - - 0.6
01/04:30pm 28.7 27.1 15.9 45 7.9 NNW 19 37 10 20 - - 0.6
01/04:00pm 26.6 25.4 15.0 49 7.0 NNW 15 30 8 16 - - 0.6
01/03:41pm 28.8 24.5 13.1 38 9.3 WNW 28 50 15 27 - - 0.6
01/03:30pm 30.7 28.8 14.3 36 10.0 NW 17 28 9 15 - - 0.6
01/03:00pm 30.7 30.1 16.7 43 8.8 NW 15 32 8 17 - - 0.6
01/02:52pm 30.1 31.1 19.5 53 7.0 NW 13 22 7 12 - - 0.6
01/02:30pm 25.1 25.5 18.1 65 4.4 NW 13 20 7 11 - - 0.6
01/02:23pm 23.5 18.8 14.8 58 5.2 WNW 33 63 18 34 - - 0.6
01/02:17pm 29.1 22.2 14.1 40 9.1 NW 43 63 23 34 - - 0.2
01/02:05pm 32.6 28.0 12.3 29 12.1 NNW 28 54 15 29 - - 0.0
01/02:00pm 33.3 30.0 12.9 29 12.3 NNW 22 39 12 21 - - 0.0
01/01:38pm 33.8 29.5 13.3 29 12.4 NNW 28 52 15 28 - - 0.0
01/01:30pm 33.0 28.9 12.6 29 12.2 NNW 26 43 14 23 - - 0.0
01/01:00pm 34.2 29.7 12.5 27 13.0 NW 28 46 15 25 - - 0.0
01/12:33pm 33.3 28.5 12.9 29 12.3 NNW 30 50 16 27 - - 0.0
01/12:30pm 33.6 28.5 13.1 29 12.4 NNW 32 48 17 26 - - 0.0
01/12:01pm 33.2 28.0 12.8 29 12.3 NNW 32 52 17 28 - - 0.0
01/12:00pm 33.2 27.6 12.2 28 12.5 NNW 33 52 18 28 - - 0.0
01/11:57am 33.6 28.9 13.1 29 12.4 NNW 30 48 16 26 - - 0.0
01/11:30am 33.1 28.6 12.7 29 12.2 N 28 44 15 24 - - 0.0
01/11:19am 33.0 28.7 13.1 30 12.0 NNW 28 46 15 25 - - 0.0
01/11:00am 32.6 28.7 13.3 31 11.7 NNW 26 46 14 25 - - 0.0
01/10:30am 31.4 27.8 13.2 33 10.9 NNW 24 44 13 24 - - 0.0
01/10:00am 30.1 26.3 12.5 34 10.4 N 24 37 13 20 - - 0.0
01/09:30am 30.3 27.5 13.1 34 10.3 NNW 20 37 11 20 - - 0.0
01/09:00am 28.4 24.9 12.3 37 9.4 NNW 22 37 12 20 - - 0.0
01/08:30am 27.6 25.0 12.0 38 9.0 NNW 17 35 9 19 - - 0.0
01/08:00am 26.1 24.5 12.9 44 7.7 N 13 20 7 11 - - 0.0
01/07:30am 25.4 23.7 12.3 44 7.6 N 13 24 7 13 - - 0.0
01/07:00am 24.6 22.3 11.9 45 7.3 N 15 26 8 14 - - 0.0
01/06:30am 23.8 22.2 11.5 46 6.9 N 11 19 6 10 - - 0.0
01/06:00am 24.4 21.9 11.0 43 7.5 N 15 24 8 13 - - 0.0
01/05:30am 24.7 22.2 10.9 42 7.7 N 15 26 8 14 - - 0.0
01/05:00am 24.4 23.0 11.0 43 7.5 N 9 15 5 8 - - 0.0
01/04:30am 24.8 23.0 11.0 42 7.8 NNW 11 17 6 9 - - 0.0
01/04:00am 24.3 23.6 11.9 45 7.1 N 7 11 4 6 - - 0.0
01/03:30am 23.9 23.0 11.3 45 7.1 N 7 13 4 7 - - 0.0
01/03:00am 24.4 23.4 11.0 43 7.5 NNW 7 13 4 7 - - 0.0
01/02:30am 23.4 22.7 10.1 43 7.3 NNW 4 7 2 4 - - 0.0
01/02:00am 23.7 22.3 9.7 41 7.7 NNW 7 13 4 7 - - 0.0
01/01:30am 22.4 20.7 9.9 45 6.8 N 9 15 5 8 - - 0.0
01/01:00am 21.0 19.6 9.6 48 6.1 NW 7 11 4 6 - - 0.0
01/12:30am 21.3 21.1 8.9 45 6.6 CALM 0 2 0 1 - - 0.0
01/12:00am 21.7 21.6 9.3 45 6.7 CALM 0 0 0 0 - - 0.0
 
Date/Time
EDT
Temp
°C
App
Temp
°C
Dew
Point
Rel
Hum
%
Delta-T
°C
Wind Press
QNH
hPa
Press
MSL
hPa
Rain
since 9 am
mm
Dir
 
Spd
km/h
Gust
km/h
Spd
kts
Gust
kts
31/11:30pm 22.1 20.5 7.9 40 7.5 SE 6 9 3 5 - - 0.0
31/11:00pm 22.2 20.5 6.0 35 8.2 SE 4 4 2 2 - - 0.0
31/10:30pm 23.7 22.5 6.5 33 8.9 E 2 4 1 2 - - 0.0
31/10:00pm 22.7 21.9 6.5 35 8.3 CALM 0 0 0 0 - - 0.0
31/09:30pm 23.4 22.4 5.8 32 9.0 CALM 0 0 0 0 - - 0.0
31/09:00pm 24.6 23.6 5.4 29 9.8 CALM 0 0 0 0 - - 0.0
31/08:30pm 26.0 24.1 5.0 26 10.7 ENE 4 7 2 4 - - 0.0
31/08:00pm 26.3 23.5 5.3 26 10.8 E 9 13 5 7 - - 0.0
31/07:30pm 27.0 24.0 5.9 26 11.0 ENE 11 17 6 9 - - 0.0
31/07:00pm 27.6 24.9 5.8 25 11.4 ENE 9 19 5 10 - - 0.0
31/06:30pm 29.4 25.2 5.5 22 12.5 ENE 17 24 9 13 - - 0.0
31/06:00pm 29.9 26.3 5.2 21 12.9 E 13 20 7 11 - - 0.0
31/05:30pm 31.3 27.5 7.7 23 13.0 ENE 17 28 9 15 - - 0.0
31/05:00pm 32.2 27.6 6.4 20 14.0 ENE 20 33 11 18 - - 0.0
31/04:30pm 32.3 27.9 6.5 20 14.0 NE 19 28 10 15 - - 0.0
31/04:00pm 35.5 30.8 2.9 13 17.0 NNW 17 28 9 15 - - 0.0
31/03:30pm 35.2 31.9 2.6 13 16.9 NNW 9 22 5 12 - - 0.0
31/03:00pm 34.1 30.7 1.8 13 16.4 NW 9 20 5 11 - - 0.0
31/02:30pm 34.7 31.0 2.3 13 16.6 NNE 11 20 6 11 - - 0.0
31/02:00pm 34.5 31.3 5.0 16 15.8 NE 11 26 6 14 - - 0.0
31/01:30pm 33.9 30.1 3.7 15 15.8 NE 13 19 7 10 - - 0.0
31/01:00pm 33.2 29.6 4.9 17 15.0 NNE 13 24 7 13 - - 0.0
31/12:30pm 33.1 31.2 9.2 23 13.6 NNE 9 17 5 9 - - 0.0
31/12:00pm 31.5 29.8 9.7 26 12.4 NNE 9 20 5 11 - - 0.0
31/11:30am 29.6 27.2 8.6 27 11.6 N 11 19 6 10 - - 0.0
31/11:00am 27.8 26.7 10.1 33 10.0 N 6 11 3 6 - - 0.0
31/10:30am 26.1 25.9 10.3 37 8.8 N 2 6 1 3 - - 0.0
31/10:00am 24.2 24.1 9.4 39 8.1 CALM 0 0 0 0 - - 0.0
31/09:30am 22.8 22.9 10.3 45 6.9 CALM 0 0 0 0 - - 0.0
31/09:00am 20.8 20.4 9.7 49 6.0 W 2 7 1 4 - - 0.0
31/08:30am 19.3 19.4 10.0 55 5.0 CALM 0 4 0 2 - - 0.0
31/08:00am 17.9 17.5 9.8 59 4.3 WNW 2 6 1 3 - - 0.0
31/07:30am 17.0 17.0 9.7 62 3.8 CALM 0 4 0 2 - - 0.0
31/07:00am 15.1 15.1 9.7 70 2.8 CALM 0 0 0 0 - - 0.0
31/06:30am 12.6 12.4 9.1 79 1.8 CALM 0 0 0 0 - - 0.0
31/06:00am 11.5 11.2 8.7 83 1.4 CALM 0 0 0 0 - - 0.0
31/05:30am 12.4 12.2 8.9 79 1.8 CALM 0 0 0 0 - - 0.0
31/05:00am 12.9 12.5 8.4 74 2.2 CALM 0 0 0 0 - - 0.0
31/04:30am 14.1 13.8 8.5 69 2.8 CALM 0 4 0 2 - - 0.0
31/04:00am 13.9 12.4 8.3 69 2.8 SW 6 9 3 5 - - 0.0
31/03:30am 14.6 14.0 8.8 68 3.0 WSW 2 6 1 3 - - 0.0
31/03:00am 14.7 14.6 9.3 70 2.8 CALM 0 0 0 0 - - 0.0
31/02:30am 15.2 15.2 9.8 70 2.8 CALM 0 2 0 1 - - 0.0
31/02:00am 15.0 15.2 10.4 74 2.4 CALM 0 0 0 0 - - 0.0
31/01:30am 16.0 16.0 9.7 66 3.3 CALM 0 2 0 1 - - 0.0
31/01:00am 16.0 16.1 10.1 68 3.1 CALM 0 0 0 0 - - 0.0
31/12:30am 15.4 15.5 10.0 70 2.8 CALM 0 0 0 0 - - 0.0
31/12:00am 16.3 16.4 10.2 67 3.2 CALM 0 0 0 0 - - 0.0
 
Date/Time
EDT
Temp
°C
App
Temp
°C
Dew
Point
Rel
Hum
%
Delta-T
°C
Wind Press
QNH
hPa
Press
MSL
hPa
Rain
since 9 am
mm
Dir
 
Spd
km/h
Gust
km/h
Spd
kts
Gust
kts
30/11:30pm 16.7 16.7 9.9 64 3.6 CALM 0 0 0 0 - - 0.0
30/11:00pm 17.1 17.2 10.0 63 3.8 CALM 0 0 0 0 - - 0.0
30/10:30pm 18.3 18.3 9.9 58 4.5 CALM 0 4 0 2 - - 0.0
30/10:00pm 18.8 18.9 10.1 57 4.7 CALM 0 0 0 0 - - 0.0
30/09:30pm 20.3 19.1 9.5 50 5.8 SE 6 7 3 4 - - 0.0
30/09:00pm 21.4 19.7 9.9 48 6.2 ESE 9 15 5 8 - - 0.0
30/08:30pm 21.9 20.6 9.8 46 6.6 SE 7 15 4 8 - - 0.0
30/08:00pm 23.4 21.4 10.1 43 7.3 SE 11 17 6 9 - - 0.0
30/07:30pm 24.7 22.9 9.4 38 8.4 ESE 9 15 5 8 - - 0.0
30/07:00pm 28.3 27.1 4.6 22 12.2 CALM 0 2 0 1 - - 0.0
30/06:30pm 30.4 29.0 3.4 18 13.8 CALM 0 0 0 0 - - 0.0
30/06:00pm 30.4 29.0 3.4 18 13.8 CALM 0 0 0 0 - - 0.0
30/05:30pm 30.4 29.1 4.2 19 13.5 CALM 0 2 0 1 - - 0.0
30/05:00pm 30.5 29.5 5.7 21 13.1 CALM 0 2 0 1 - - 0.0
30/04:30pm 31.0 29.4 4.7 19 13.7 WNW 2 11 1 6 - - 0.0
30/04:00pm 30.6 29.5 5.1 20 13.4 CALM 0 7 0 4 - - 0.0
30/03:30pm 30.0 29.4 7.2 24 12.4 CALM 0 7 0 4 - - 0.0
30/03:00pm 29.4 29.1 8.5 27 11.5 CALM 0 7 0 4 - - 0.0
30/02:30pm 29.3 28.6 8.4 27 11.5 WNW 2 9 1 5 - - 0.0
30/02:00pm 28.5 26.7 7.1 26 11.5 NW 6 13 3 7 - - 0.0
30/01:30pm 28.0 25.8 7.8 28 10.9 WNW 9 20 5 11 - - 0.0
30/01:00pm 27.8 25.7 8.1 29 10.7 NW 9 19 5 10 - - 0.0
30/12:30pm 27.1 25.7 9.0 32 10.0 NW 6 17 3 9 - - 0.0
30/12:00pm 26.1 25.1 9.0 34 9.4 NW 4 11 2 6 - - 0.0
30/11:30am 25.9 26.0 10.1 37 8.8 CALM 0 7 0 4 - - 0.0
30/11:00am 24.6 24.9 12.2 46 7.1 N 2 9 1 5 - - 0.0
30/10:30am 23.4 24.2 13.8 54 5.6 N 2 7 1 4 - - 0.0
30/10:00am 21.9 22.7 14.8 64 4.2 N 4 9 2 5 - - 0.0
30/09:30am 20.1 20.7 14.2 69 3.4 NNW 4 9 2 5 - - 0.0
30/09:00am 18.9 19.9 14.4 75 2.6 W 2 7 1 4 - - 0.0
30/08:30am 17.5 17.9 14.8 84 1.6 NW 6 9 3 5 - - 0.0
30/08:00am 16.3 16.4 13.8 85 1.4 NW 6 9 3 5 - - 0.0
30/07:30am 15.6 16.2 14.3 92 0.7 W 4 6 2 3 - - 0.0
30/07:00am 13.8 14.8 13.3 97 0.3 CALM 0 2 0 1 - - 0.0
30/06:30am 13.1 13.9 12.5 96 0.3 CALM 0 0 0 0 - - 0.0
30/06:00am 12.8 13.5 12.2 96 0.3 CALM 0 0 0 0 - - 0.0
30/05:30am 13.2 14.0 12.6 96 0.3 CALM 0 0 0 0 - - 0.0
30/05:00am 13.0 13.7 12.2 95 0.4 CALM 0 0 0 0 - - 0.0
30/04:30am 13.0 13.7 12.2 95 0.4 CALM 0 0 0 0 - - 0.0
30/04:00am 13.7 14.7 13.1 96 0.3 CALM 0 0 0 0 - - 0.0
30/03:30am 13.5 14.4 12.9 96 0.3 CALM 0 0 0 0 - - 0.0
30/03:00am 13.2 13.9 12.3 94 0.5 CALM 0 0 0 0 - - 0.0
30/02:30am 13.5 14.3 12.6 94 0.5 CALM 0 0 0 0 - - 0.0
30/02:00am 13.6 14.4 12.7 94 0.5 CALM 0 0 0 0 - - 0.0
30/01:30am 13.9 14.8 12.8 93 0.6 CALM 0 0 0 0 - - 0.0
30/01:00am 14.0 14.8 12.7 92 0.7 CALM 0 0 0 0 - - 0.0
30/12:30am 14.3 15.2 12.9 91 0.8 CALM 0 0 0 0 - - 0.0
30/12:00am 14.7 15.6 12.9 89 1.0 CALM 0 0 0 0 - - 0.0
 
Date/Time
EDT
Temp
°C
App
Temp
°C
Dew
Point
Rel
Hum
%
Delta-T
°C
Wind Press
QNH
hPa
Press
MSL
hPa
Rain
since 9 am
mm
Dir
 
Spd
km/h
Gust
km/h
Spd
kts
Gust
kts
29/11:30pm 15.4 16.2 12.7 84 1.5 CALM 0 0 0 0 - - 0.0

Other Formats:

Comma delimited format used in spreadsheet applications
http://www.bom.gov.au/fwo/IDN60801/IDN60801.94760.axf

JavaScript Object Notation format (JSON) in row-major order
http://www.bom.gov.au/fwo/IDN60801/IDN60801.94760.json